sensor_id;sensor_type;location;lat;lon;timestamp;temperature;humidity
16505;HTU21D;8365;51.030;4.696;2024-03-02T00:02:11;6.96;118.99
16505;HTU21D;8365;51.030;4.696;2024-03-02T00:04:44;6.96;118.99
16505;HTU21D;8365;51.030;4.696;2024-03-02T00:07:14;6.99;118.99
16505;HTU21D;8365;51.030;4.696;2024-03-02T00:09:45;7.02;118.99
16505;HTU21D;8365;51.030;4.696;2024-03-02T00:12:15;7.10;118.99
16505;HTU21D;8365;51.030;4.696;2024-03-02T00:14:49;7.12;118.99
16505;HTU21D;8365;51.030;4.696;2024-03-02T00:17:24;7.16;118.99
16505;HTU21D;8365;51.030;4.696;2024-03-02T00:19:58;7.18;118.99
16505;HTU21D;8365;51.030;4.696;2024-03-02T00:22:29;7.18;118.99
16505;HTU21D;8365;51.030;4.696;2024-03-02T00:24:59;7.17;118.99
16505;HTU21D;8365;51.030;4.696;2024-03-02T00:27:30;7.15;118.99
16505;HTU21D;8365;51.030;4.696;2024-03-02T00:30:01;7.15;118.99
16505;HTU21D;8365;51.030;4.696;2024-03-02T00:32:32;6.95;118.99
16505;HTU21D;8365;51.030;4.696;2024-03-02T00:35:05;6.99;118.99
16505;HTU21D;8365;51.030;4.696;2024-03-02T00:37:35;7.10;118.99
16505;HTU21D;8365;51.030;4.696;2024-03-02T00:40:06;6.96;118.99
16505;HTU21D;8365;51.030;4.696;2024-03-02T00:42:38;6.85;118.99
16505;HTU21D;8365;51.030;4.696;2024-03-02T00:45:09;6.87;118.99
16505;HTU21D;8365;51.030;4.696;2024-03-02T00:47:40;6.93;118.99
16505;HTU21D;8365;51.030;4.696;2024-03-02T00:50:10;6.87;118.99
16505;HTU21D;8365;51.030;4.696;2024-03-02T00:52:41;6.95;118.99
16505;HTU21D;8365;51.030;4.696;2024-03-02T00:55:12;6.89;118.99
16505;HTU21D;8365;51.030;4.696;2024-03-02T00:57:42;6.86;118.99
16505;HTU21D;8365;51.030;4.696;2024-03-02T01:00:15;6.83;118.99
16505;HTU21D;8365;51.030;4.696;2024-03-02T01:02:49;6.81;118.99
16505;HTU21D;8365;51.030;4.696;2024-03-02T01:05:20;6.74;118.99
16505;HTU21D;8365;51.030;4.696;2024-03-02T01:07:51;6.73;118.99
16505;HTU21D;8365;51.030;4.696;2024-03-02T01:10:21;6.69;118.99
16505;HTU21D;8365;51.030;4.696;2024-03-02T01:12:52;6.75;118.99
16505;HTU21D;8365;51.030;4.696;2024-03-02T01:15:22;6.76;118.99
16505;HTU21D;8365;51.030;4.696;2024-03-02T01:17:53;6.72;118.99
16505;HTU21D;8365;51.030;4.696;2024-03-02T01:20:23;6.72;118.99
16505;HTU21D;8365;51.030;4.696;2024-03-02T01:22:55;6.81;118.99
16505;HTU21D;8365;51.030;4.696;2024-03-02T01:25:25;6.76;118.99
16505;HTU21D;8365;51.030;4.696;2024-03-02T01:27:56;6.82;118.99
16505;HTU21D;8365;51.030;4.696;2024-03-02T01:30:26;6.78;118.99
16505;HTU21D;8365;51.030;4.696;2024-03-02T01:32:57;6.81;118.99
16505;HTU21D;8365;51.030;4.696;2024-03-02T01:35:29;6.76;118.99
16505;HTU21D;8365;51.030;4.696;2024-03-02T01:38:02;6.84;118.99
16505;HTU21D;8365;51.030;4.696;2024-03-02T01:40:36;6.76;118.99
16505;HTU21D;8365;51.030;4.696;2024-03-02T01:43:07;6.82;118.99
16505;HTU21D;8365;51.030;4.696;2024-03-02T01:45:38;6.84;118.99
16505;HTU21D;8365;51.030;4.696;2024-03-02T01:48:08;6.94;118.99
16505;HTU21D;8365;51.030;4.696;2024-03-02T01:50:41;6.88;118.99
16505;HTU21D;8365;51.030;4.696;2024-03-02T01:53:12;6.81;118.99
16505;HTU21D;8365;51.030;4.696;2024-03-02T01:55:42;6.82;118.99
16505;HTU21D;8365;51.030;4.696;2024-03-02T01:58:13;6.71;118.99
16505;HTU21D;8365;51.030;4.696;2024-03-02T02:00:44;6.73;118.99
16505;HTU21D;8365;51.030;4.696;2024-03-02T02:03:15;6.68;118.99
16505;HTU21D;8365;51.030;4.696;2024-03-02T02:05:45;6.67;118.99
16505;HTU21D;8365;51.030;4.696;2024-03-02T02:08:18;6.65;118.99
16505;HTU21D;8365;51.030;4.696;2024-03-02T02:10:48;6.67;118.99
16505;HTU21D;8365;51.030;4.696;2024-03-02T02:13:19;6.67;118.99
16505;HTU21D;8365;51.030;4.696;2024-03-02T02:15:50;6.73;118.99
16505;HTU21D;8365;51.030;4.696;2024-03-02T02:18:21;6.67;118.99
16505;HTU21D;8365;51.030;4.696;2024-03-02T02:20:51;6.82;118.99
16505;HTU21D;8365;51.030;4.696;2024-03-02T02:23:22;6.85;118.99
16505;HTU21D;8365;51.030;4.696;2024-03-02T02:25:52;6.82;118.99
16505;HTU21D;8365;51.030;4.696;2024-03-02T02:28:23;6.90;118.99
16505;HTU21D;8365;51.030;4.696;2024-03-02T02:30:55;6.91;118.99
16505;HTU21D;8365;51.030;4.696;2024-03-02T02:33:26;6.98;118.99
16505;HTU21D;8365;51.030;4.696;2024-03-02T02:35:57;6.94;118.99
16505;HTU21D;8365;51.030;4.696;2024-03-02T02:38:27;6.97;118.99
16505;HTU21D;8365;51.030;4.696;2024-03-02T02:40:58;6.98;118.99
16505;HTU21D;8365;51.030;4.696;2024-03-02T02:43:28;6.97;118.99
16505;HTU21D;8365;51.030;4.696;2024-03-02T02:45:59;7.03;118.99
16505;HTU21D;8365;51.030;4.696;2024-03-02T02:48:29;7.09;118.99
16505;HTU21D;8365;51.030;4.696;2024-03-02T02:50:59;7.05;118.99
16505;HTU21D;8365;51.030;4.696;2024-03-02T02:53:30;7.12;118.99
16505;HTU21D;8365;51.030;4.696;2024-03-02T02:56:00;7.14;118.99
16505;HTU21D;8365;51.030;4.696;2024-03-02T02:58:32;7.15;118.99
16505;HTU21D;8365;51.030;4.696;2024-03-02T03:01:02;7.14;118.99
16505;HTU21D;8365;51.030;4.696;2024-03-02T03:03:34;7.07;118.99
16505;HTU21D;8365;51.030;4.696;2024-03-02T03:06:04;7.05;118.99
16505;HTU21D;8365;51.030;4.696;2024-03-02T03:08:35;7.07;118.99
16505;HTU21D;8365;51.030;4.696;2024-03-02T03:11:05;7.03;118.99
16505;HTU21D;8365;51.030;4.696;2024-03-02T03:13:36;6.95;118.99
16505;HTU21D;8365;51.030;4.696;2024-03-02T03:16:09;6.93;118.99
16505;HTU21D;8365;51.030;4.696;2024-03-02T03:18:39;6.90;118.99
16505;HTU21D;8365;51.030;4.696;2024-03-02T03:21:09;6.83;118.99
16505;HTU21D;8365;51.030;4.696;2024-03-02T03:23:42;6.85;118.99
16505;HTU21D;8365;51.030;4.696;2024-03-02T03:26:13;6.80;118.99
16505;HTU21D;8365;51.030;4.696;2024-03-02T03:28:43;6.74;118.99
16505;HTU21D;8365;51.030;4.696;2024-03-02T03:31:14;6.66;118.99
16505;HTU21D;8365;51.030;4.696;2024-03-02T03:33:45;6.63;118.99
16505;HTU21D;8365;51.030;4.696;2024-03-02T03:36:15;6.69;118.99
16505;HTU21D;8365;51.030;4.696;2024-03-02T03:38:46;6.55;118.99
16505;HTU21D;8365;51.030;4.696;2024-03-02T03:41:16;6.54;118.99
16505;HTU21D;8365;51.030;4.696;2024-03-02T03:43:49;6.46;118.99
16505;HTU21D;8365;51.030;4.696;2024-03-02T03:46:19;6.45;118.99
16505;HTU21D;8365;51.030;4.696;2024-03-02T03:48:50;6.48;118.99
16505;HTU21D;8365;51.030;4.696;2024-03-02T03:51:21;6.29;118.99
16505;HTU21D;8365;51.030;4.696;2024-03-02T03:53:52;6.23;118.99
16505;HTU21D;8365;51.030;4.696;2024-03-02T03:56:23;6.23;118.99
16505;HTU21D;8365;51.030;4.696;2024-03-02T03:58:53;6.24;118.99
16505;HTU21D;8365;51.030;4.696;2024-03-02T04:01:23;6.15;118.99
16505;HTU21D;8365;51.030;4.696;2024-03-02T04:03:54;6.13;118.99
16505;HTU21D;8365;51.030;4.696;2024-03-02T04:06:25;6.10;118.99
16505;HTU21D;8365;51.030;4.696;2024-03-02T04:08:55;6.05;118.99
16505;HTU21D;8365;51.030;4.696;2024-03-02T04:11:29;6.07;118.99
16505;HTU21D;8365;51.030;4.696;2024-03-02T04:14:00;6.06;118.99
16505;HTU21D;8365;51.030;4.696;2024-03-02T04:16:31;6.11;118.99
16505;HTU21D;8365;51.030;4.696;2024-03-02T04:19:01;6.11;118.99
16505;HTU21D;8365;51.030;4.696;2024-03-02T04:21:32;6.11;118.99
16505;HTU21D;8365;51.030;4.696;2024-03-02T04:24:02;6.09;118.99
16505;HTU21D;8365;51.030;4.696;2024-03-02T04:26:36;6.06;118.99
16505;HTU21D;8365;51.030;4.696;2024-03-02T04:29:06;5.98;118.99
16505;HTU21D;8365;51.030;4.696;2024-03-02T04:31:36;5.99;118.99
16505;HTU21D;8365;51.030;4.696;2024-03-02T04:34:07;5.99;118.99
16505;HTU21D;8365;51.030;4.696;2024-03-02T04:36:38;5.93;118.99
16505;HTU21D;8365;51.030;4.696;2024-03-02T04:39:08;5.89;118.99
16505;HTU21D;8365;51.030;4.696;2024-03-02T04:41:40;5.90;118.99
16505;HTU21D;8365;51.030;4.696;2024-03-02T04:44:10;5.83;118.99
16505;HTU21D;8365;51.030;4.696;2024-03-02T04:46:40;5.76;118.99
16505;HTU21D;8365;51.030;4.696;2024-03-02T04:49:11;5.69;118.99
16505;HTU21D;8365;51.030;4.696;2024-03-02T04:51:41;5.78;118.99
16505;HTU21D;8365;51.030;4.696;2024-03-02T04:54:12;5.77;118.99
16505;HTU21D;8365;51.030;4.696;2024-03-02T04:56:46;5.72;118.99
16505;HTU21D;8365;51.030;4.696;2024-03-02T04:59:22;5.69;118.99
16505;HTU21D;8365;51.030;4.696;2024-03-02T05:01:52;5.66;118.99
16505;HTU21D;8365;51.030;4.696;2024-03-02T05:04:23;5.71;118.99
16505;HTU21D;8365;51.030;4.696;2024-03-02T05:06:53;5.65;118.99
16505;HTU21D;8365;51.030;4.696;2024-03-02T05:09:26;5.66;118.99
16505;HTU21D;8365;51.030;4.696;2024-03-02T05:11:56;5.55;118.99
16505;HTU21D;8365;51.030;4.696;2024-03-02T05:14:50;5.53;118.99
16505;HTU21D;8365;51.030;4.696;2024-03-02T05:17:20;5.55;118.99
16505;HTU21D;8365;51.030;4.696;2024-03-02T05:19:51;5.53;118.99
16505;HTU21D;8365;51.030;4.696;2024-03-02T05:22:21;5.50;118.99
16505;HTU21D;8365;51.030;4.696;2024-03-02T05:24:52;5.50;118.99
16505;HTU21D;8365;51.030;4.696;2024-03-02T05:27:22;5.43;118.99
16505;HTU21D;8365;51.030;4.696;2024-03-02T05:29:53;5.52;118.99
16505;HTU21D;8365;51.030;4.696;2024-03-02T05:32:23;5.53;118.99
16505;HTU21D;8365;51.030;4.696;2024-03-02T05:34:54;5.64;118.99
16505;HTU21D;8365;51.030;4.696;2024-03-02T05:37:25;5.61;118.99
16505;HTU21D;8365;51.030;4.696;2024-03-02T05:39:55;5.55;118.99
16505;HTU21D;8365;51.030;4.696;2024-03-02T05:42:26;5.53;118.99
16505;HTU21D;8365;51.030;4.696;2024-03-02T05:44:57;5.51;118.99
16505;HTU21D;8365;51.030;4.696;2024-03-02T05:47:29;5.43;118.99
16505;HTU21D;8365;51.030;4.696;2024-03-02T05:50:00;5.46;118.99
16505;HTU21D;8365;51.030;4.696;2024-03-02T05:52:30;5.48;118.99
16505;HTU21D;8365;51.030;4.696;2024-03-02T05:55:01;5.49;118.99
16505;HTU21D;8365;51.030;4.696;2024-03-02T05:57:33;5.47;118.99
16505;HTU21D;8365;51.030;4.696;2024-03-02T06:00:19;5.50;118.99
16505;HTU21D;8365;51.030;4.696;2024-03-02T06:02:50;5.46;118.99
16505;HTU21D;8365;51.030;4.696;2024-03-02T06:05:23;5.52;118.99
16505;HTU21D;8365;51.030;4.696;2024-03-02T06:07:53;5.54;118.99
16505;HTU21D;8365;51.030;4.696;2024-03-02T06:10:24;5.52;118.99
16505;HTU21D;8365;51.030;4.696;2024-03-02T06:12:55;5.56;118.99
16505;HTU21D;8365;51.030;4.696;2024-03-02T06:15:26;5.57;118.99
16505;HTU21D;8365;51.030;4.696;2024-03-02T06:17:56;5.60;118.99
16505;HTU21D;8365;51.030;4.696;2024-03-02T06:20:27;5.57;118.99
16505;HTU21D;8365;51.030;4.696;2024-03-02T06:22:57;5.59;118.99
16505;HTU21D;8365;51.030;4.696;2024-03-02T06:25:28;5.59;118.99
16505;HTU21D;8365;51.030;4.696;2024-03-02T06:27:58;5.57;118.99
16505;HTU21D;8365;51.030;4.696;2024-03-02T06:30:29;5.64;118.99
16505;HTU21D;8365;51.030;4.696;2024-03-02T06:32:59;5.70;118.99
16505;HTU21D;8365;51.030;4.696;2024-03-02T06:35:30;5.68;118.99
16505;HTU21D;8365;51.030;4.696;2024-03-02T06:38:00;5.74;118.99
16505;HTU21D;8365;51.030;4.696;2024-03-02T06:40:31;5.76;118.99
16505;HTU21D;8365;51.030;4.696;2024-03-02T06:43:01;5.80;118.99
16505;HTU21D;8365;51.030;4.696;2024-03-02T06:45:34;5.72;118.99
16505;HTU21D;8365;51.030;4.696;2024-03-02T06:48:08;5.70;118.99
16505;HTU21D;8365;51.030;4.696;2024-03-02T06:50:39;5.75;118.99
16505;HTU21D;8365;51.030;4.696;2024-03-02T06:53:10;5.70;118.99
16505;HTU21D;8365;51.030;4.696;2024-03-02T06:55:40;5.69;118.99
16505;HTU21D;8365;51.030;4.696;2024-03-02T06:58:16;5.69;118.99
16505;HTU21D;8365;51.030;4.696;2024-03-02T07:00:47;5.69;118.99
16505;HTU21D;8365;51.030;4.696;2024-03-02T07:03:18;5.67;118.99
16505;HTU21D;8365;51.030;4.696;2024-03-02T07:05:49;5.66;118.99
16505;HTU21D;8365;51.030;4.696;2024-03-02T07:08:19;5.66;118.99
16505;HTU21D;8365;51.030;4.696;2024-03-02T07:10:50;5.68;118.99
16505;HTU21D;8365;51.030;4.696;2024-03-02T07:13:20;5.68;118.99
16505;HTU21D;8365;51.030;4.696;2024-03-02T07:15:50;5.79;118.99
16505;HTU21D;8365;51.030;4.696;2024-03-02T07:18:33;5.81;118.99
16505;HTU21D;8365;51.030;4.696;2024-03-02T07:21:03;5.90;118.99
16505;HTU21D;8365;51.030;4.696;2024-03-02T07:23:34;5.95;118.99
16505;HTU21D;8365;51.030;4.696;2024-03-02T07:26:04;5.97;118.99
16505;HTU21D;8365;51.030;4.696;2024-03-02T07:28:36;6.05;118.99
16505;HTU21D;8365;51.030;4.696;2024-03-02T07:31:07;6.09;118.99
16505;HTU21D;8365;51.030;4.696;2024-03-02T07:33:37;6.13;118.99
16505;HTU21D;8365;51.030;4.696;2024-03-02T07:36:08;6.16;118.99
16505;HTU21D;8365;51.030;4.696;2024-03-02T07:38:38;6.43;118.99
16505;HTU21D;8365;51.030;4.696;2024-03-02T07:41:10;6.52;118.99
16505;HTU21D;8365;51.030;4.696;2024-03-02T07:43:41;6.84;118.99
16505;HTU21D;8365;51.030;4.696;2024-03-02T07:46:12;7.17;118.99
16505;HTU21D;8365;51.030;4.696;2024-03-02T07:48:45;7.16;118.99
16505;HTU21D;8365;51.030;4.696;2024-03-02T07:51:15;7.20;118.99
16505;HTU21D;8365;51.030;4.696;2024-03-02T07:53:47;7.50;118.99
16505;HTU21D;8365;51.030;4.696;2024-03-02T07:56:17;7.62;118.99
16505;HTU21D;8365;51.030;4.696;2024-03-02T07:58:54;7.69;118.99
16505;HTU21D;8365;51.030;4.696;2024-03-02T08:01:28;7.65;118.99
16505;HTU21D;8365;51.030;4.696;2024-03-02T08:04:01;8.03;118.99
16505;HTU21D;8365;51.030;4.696;2024-03-02T08:06:33;7.85;118.99
16505;HTU21D;8365;51.030;4.696;2024-03-02T08:09:04;8.08;118.99
16505;HTU21D;8365;51.030;4.696;2024-03-02T08:11:39;8.14;118.99
16505;HTU21D;8365;51.030;4.696;2024-03-02T08:14:10;8.04;118.99
16505;HTU21D;8365;51.030;4.696;2024-03-02T08:16:41;8.22;118.99
16505;HTU21D;8365;51.030;4.696;2024-03-02T08:19:11;8.37;118.99
16505;HTU21D;8365;51.030;4.696;2024-03-02T08:21:43;8.44;118.99
16505;HTU21D;8365;51.030;4.696;2024-03-02T08:24:13;8.37;118.99
16505;HTU21D;8365;51.030;4.696;2024-03-02T08:26:44;8.66;118.99
16505;HTU21D;8365;51.030;4.696;2024-03-02T08:29:16;8.77;118.99
16505;HTU21D;8365;51.030;4.696;2024-03-02T08:31:47;9.15;118.99
16505;HTU21D;8365;51.030;4.696;2024-03-02T08:34:17;9.45;118.99
16505;HTU21D;8365;51.030;4.696;2024-03-02T08:36:48;8.95;118.99
16505;HTU21D;8365;51.030;4.696;2024-03-02T08:39:18;9.02;118.99
16505;HTU21D;8365;51.030;4.696;2024-03-02T08:41:50;8.97;118.99
16505;HTU21D;8365;51.030;4.696;2024-03-02T08:44:20;8.58;118.99
16505;HTU21D;8365;51.030;4.696;2024-03-02T08:46:52;9.07;118.99
16505;HTU21D;8365;51.030;4.696;2024-03-02T08:49:22;9.83;118.99
16505;HTU21D;8365;51.030;4.696;2024-03-02T08:51:52;9.84;118.99
16505;HTU21D;8365;51.030;4.696;2024-03-02T08:54:26;9.68;118.99
16505;HTU21D;8365;51.030;4.696;2024-03-02T08:57:01;9.68;118.99
16505;HTU21D;8365;51.030;4.696;2024-03-02T08:59:32;9.93;118.99
16505;HTU21D;8365;51.030;4.696;2024-03-02T09:02:03;10.03;118.99
16505;HTU21D;8365;51.030;4.696;2024-03-02T09:04:33;10.19;118.99
16505;HTU21D;8365;51.030;4.696;2024-03-02T09:07:04;10.13;118.99
16505;HTU21D;8365;51.030;4.696;2024-03-02T09:09:34;10.31;118.99
16505;HTU21D;8365;51.030;4.696;2024-03-02T09:12:08;10.80;118.99
16505;HTU21D;8365;51.030;4.696;2024-03-02T09:14:40;10.86;118.99
16505;HTU21D;8365;51.030;4.696;2024-03-02T09:17:11;10.89;118.99
16505;HTU21D;8365;51.030;4.696;2024-03-02T09:19:42;10.86;118.99
16505;HTU21D;8365;51.030;4.696;2024-03-02T09:22:12;10.72;118.99
16505;HTU21D;8365;51.030;4.696;2024-03-02T09:24:43;10.97;118.99
16505;HTU21D;8365;51.030;4.696;2024-03-02T09:27:14;10.79;118.99
16505;HTU21D;8365;51.030;4.696;2024-03-02T09:29:44;11.38;118.99
16505;HTU21D;8365;51.030;4.696;2024-03-02T09:32:15;12.11;118.99
16505;HTU21D;8365;51.030;4.696;2024-03-02T09:34:45;11.31;118.99
16505;HTU21D;8365;51.030;4.696;2024-03-02T09:37:20;11.67;118.99
16505;HTU21D;8365;51.030;4.696;2024-03-02T09:39:51;11.73;118.99
16505;HTU21D;8365;51.030;4.696;2024-03-02T09:42:22;12.40;118.99
16505;HTU21D;8365;51.030;4.696;2024-03-02T09:44:57;11.88;118.99
16505;HTU21D;8365;51.030;4.696;2024-03-02T09:47:27;11.85;118.99
16505;HTU21D;8365;51.030;4.696;2024-03-02T09:49:58;11.78;118.99
16505;HTU21D;8365;51.030;4.696;2024-03-02T09:52:28;12.67;118.99
16505;HTU21D;8365;51.030;4.696;2024-03-02T09:54:59;12.62;116.88
16505;HTU21D;8365;51.030;4.696;2024-03-02T09:57:30;12.93;114.40
16505;HTU21D;8365;51.030;4.696;2024-03-02T10:00:00;12.55;112.36
16505;HTU21D;8365;51.030;4.696;2024-03-02T10:02:31;12.36;110.79
16505;HTU21D;8365;51.030;4.696;2024-03-02T10:05:02;12.57;111.66
16505;HTU21D;8365;51.030;4.696;2024-03-02T10:07:34;12.71;108.58
16505;HTU21D;8365;51.030;4.696;2024-03-02T10:10:14;13.09;104.86
16505;HTU21D;8365;51.030;4.696;2024-03-02T10:12:45;13.86;105.12
16505;HTU21D;8365;51.030;4.696;2024-03-02T10:15:24;12.47;107.43
16505;HTU21D;8365;51.030;4.696;2024-03-02T10:17:56;11.83;110.54
16505;HTU21D;8365;51.030;4.696;2024-03-02T10:20:28;11.91;113.30
16505;HTU21D;8365;51.030;4.696;2024-03-02T10:23:13;13.06;110.00
16505;HTU21D;8365;51.030;4.696;2024-03-02T10:25:44;13.48;107.37
16505;HTU21D;8365;51.030;4.696;2024-03-02T10:28:15;14.09;103.88
16505;HTU21D;8365;51.030;4.696;2024-03-02T10:30:47;14.54;101.84
16505;HTU21D;8365;51.030;4.696;2024-03-02T10:33:19;14.13;101.28
16505;HTU21D;8365;51.030;4.696;2024-03-02T10:35:50;13.34;104.31
16505;HTU21D;8365;51.030;4.696;2024-03-02T10:38:20;13.83;102.41
16505;HTU21D;8365;51.030;4.696;2024-03-02T10:40:51;14.27;100.69
16505;HTU21D;8365;51.030;4.696;2024-03-02T10:43:23;14.04;101.26
16505;HTU21D;8365;51.030;4.696;2024-03-02T10:45:54;14.12;100.63
16505;HTU21D;8365;51.030;4.696;2024-03-02T10:48:27;14.57;99.09
16505;HTU21D;8365;51.030;4.696;2024-03-02T10:50:58;14.36;96.68
16505;HTU21D;8365;51.030;4.696;2024-03-02T10:53:31;13.62;97.20
16505;HTU21D;8365;51.030;4.696;2024-03-02T10:56:05;14.85;93.78
16505;HTU21D;8365;51.030;4.696;2024-03-02T10:58:38;15.41;93.53
16505;HTU21D;8365;51.030;4.696;2024-03-02T11:01:10;14.52;94.57
16505;HTU21D;8365;51.030;4.696;2024-03-02T11:03:42;14.35;93.51
16505;HTU21D;8365;51.030;4.696;2024-03-02T11:06:13;14.43;92.70
16505;HTU21D;8365;51.030;4.696;2024-03-02T11:08:46;14.30;91.67
16505;HTU21D;8365;51.030;4.696;2024-03-02T11:11:22;14.25;90.20
16505;HTU21D;8365;51.030;4.696;2024-03-02T11:13:57;14.53;92.09
16505;HTU21D;8365;51.030;4.696;2024-03-02T11:16:34;14.72;91.09
16505;HTU21D;8365;51.030;4.696;2024-03-02T11:19:10;14.73;89.21
16505;HTU21D;8365;51.030;4.696;2024-03-02T11:21:42;14.71;89.61
16505;HTU21D;8365;51.030;4.696;2024-03-02T11:26:57;13.93;95.22
16505;HTU21D;8365;51.030;4.696;2024-03-02T11:32:14;14.98;88.12
16505;HTU21D;8365;51.030;4.696;2024-03-02T11:34:46;15.76;88.30
16505;HTU21D;8365;51.030;4.696;2024-03-02T11:37:18;16.32;83.21
16505;HTU21D;8365;51.030;4.696;2024-03-02T11:39:51;15.27;89.54
16505;HTU21D;8365;51.030;4.696;2024-03-02T11:42:21;14.91;88.52
16505;HTU21D;8365;51.030;4.696;2024-03-02T11:44:59;14.18;92.18
16505;HTU21D;8365;51.030;4.696;2024-03-02T11:47:33;14.27;90.07
16505;HTU21D;8365;51.030;4.696;2024-03-02T11:50:04;14.71;90.64
16505;HTU21D;8365;51.030;4.696;2024-03-02T11:52:38;14.98;86.82
16505;HTU21D;8365;51.030;4.696;2024-03-02T11:55:11;15.03;85.46
16505;HTU21D;8365;51.030;4.696;2024-03-02T11:57:43;15.22;83.10
16505;HTU21D;8365;51.030;4.696;2024-03-02T12:00:17;15.00;84.04
16505;HTU21D;8365;51.030;4.696;2024-03-02T12:03:00;14.51;88.87
16505;HTU21D;8365;51.030;4.696;2024-03-02T12:05:31;15.04;86.56
16505;HTU21D;8365;51.030;4.696;2024-03-02T12:08:04;14.88;86.60
16505;HTU21D;8365;51.030;4.696;2024-03-02T12:10:36;15.24;86.35
16505;HTU21D;8365;51.030;4.696;2024-03-02T12:13:07;15.25;84.16
16505;HTU21D;8365;51.030;4.696;2024-03-02T12:15:40;14.80;84.98
16505;HTU21D;8365;51.030;4.696;2024-03-02T12:18:10;14.19;87.82
16505;HTU21D;8365;51.030;4.696;2024-03-02T12:20:41;13.83;88.61
16505;HTU21D;8365;51.030;4.696;2024-03-02T12:23:11;14.12;87.99
16505;HTU21D;8365;51.030;4.696;2024-03-02T12:25:42;14.38;90.91
16505;HTU21D;8365;51.030;4.696;2024-03-02T12:28:13;13.89;91.58
16505;HTU21D;8365;51.030;4.696;2024-03-02T12:30:44;14.06;94.75
16505;HTU21D;8365;51.030;4.696;2024-03-02T12:33:16;14.08;91.60
16505;HTU21D;8365;51.030;4.696;2024-03-02T12:35:49;14.56;93.40
16505;HTU21D;8365;51.030;4.696;2024-03-02T12:38:21;14.53;92.23
16505;HTU21D;8365;51.030;4.696;2024-03-02T12:40:56;14.00;92.28
16505;HTU21D;8365;51.030;4.696;2024-03-02T12:43:30;13.69;94.82
16505;HTU21D;8365;51.030;4.696;2024-03-02T12:46:01;13.59;93.86
16505;HTU21D;8365;51.030;4.696;2024-03-02T12:48:34;13.23;97.52
16505;HTU21D;8365;51.030;4.696;2024-03-02T12:51:05;13.26;98.17
16505;HTU21D;8365;51.030;4.696;2024-03-02T12:53:36;12.94;96.88
16505;HTU21D;8365;51.030;4.696;2024-03-02T12:56:08;12.84;97.96
16505;HTU21D;8365;51.030;4.696;2024-03-02T12:58:41;12.91;98.35
16505;HTU21D;8365;51.030;4.696;2024-03-02T13:01:15;13.07;97.83
16505;HTU21D;8365;51.030;4.696;2024-03-02T13:03:49;13.00;97.17
16505;HTU21D;8365;51.030;4.696;2024-03-02T13:06:23;13.04;97.62
16505;HTU21D;8365;51.030;4.696;2024-03-02T13:08:55;13.02;99.25
16505;HTU21D;8365;51.030;4.696;2024-03-02T13:11:25;13.04;98.36
16505;HTU21D;8365;51.030;4.696;2024-03-02T13:13:56;13.29;98.26
16505;HTU21D;8365;51.030;4.696;2024-03-02T13:16:26;13.69;98.74
16505;HTU21D;8365;51.030;4.696;2024-03-02T13:18:57;13.66;97.32
16505;HTU21D;8365;51.030;4.696;2024-03-02T13:21:28;13.38;96.17
16505;HTU21D;8365;51.030;4.696;2024-03-02T13:23:58;13.56;98.65
16505;HTU21D;8365;51.030;4.696;2024-03-02T13:26:30;13.39;97.78
16505;HTU21D;8365;51.030;4.696;2024-03-02T13:29:01;13.36;97.47
16505;HTU21D;8365;51.030;4.696;2024-03-02T13:31:31;13.25;98.57
16505;HTU21D;8365;51.030;4.696;2024-03-02T13:34:02;13.79;96.62
16505;HTU21D;8365;51.030;4.696;2024-03-02T13:36:33;14.19;95.01
16505;HTU21D;8365;51.030;4.696;2024-03-02T13:39:03;14.73;90.03
16505;HTU21D;8365;51.030;4.696;2024-03-02T13:41:36;14.23;94.46
16505;HTU21D;8365;51.030;4.696;2024-03-02T13:44:06;14.19;95.43
16505;HTU21D;8365;51.030;4.696;2024-03-02T13:46:37;13.84;95.17
16505;HTU21D;8365;51.030;4.696;2024-03-02T13:49:07;13.50;98.88
16505;HTU21D;8365;51.030;4.696;2024-03-02T13:51:38;13.49;100.47
16505;HTU21D;8365;51.030;4.696;2024-03-02T13:54:08;13.23;100.54
16505;HTU21D;8365;51.030;4.696;2024-03-02T13:56:39;13.15;101.09
16505;HTU21D;8365;51.030;4.696;2024-03-02T13:59:10;13.08;100.69
16505;HTU21D;8365;51.030;4.696;2024-03-02T14:01:40;13.06;100.81
16505;HTU21D;8365;51.030;4.696;2024-03-02T14:04:11;13.19;99.76
16505;HTU21D;8365;51.030;4.696;2024-03-02T14:06:43;13.32;100.27
16505;HTU21D;8365;51.030;4.696;2024-03-02T14:09:13;13.38;99.11
16505;HTU21D;8365;51.030;4.696;2024-03-02T14:11:44;13.30;99.98
16505;HTU21D;8365;51.030;4.696;2024-03-02T14:14:14;13.24;100.13
16505;HTU21D;8365;51.030;4.696;2024-03-02T14:16:45;13.30;102.25
16505;HTU21D;8365;51.030;4.696;2024-03-02T14:19:16;13.09;101.67
16505;HTU21D;8365;51.030;4.696;2024-03-02T14:21:46;13.24;102.40
16505;HTU21D;8365;51.030;4.696;2024-03-02T14:24:19;13.24;100.86
16505;HTU21D;8365;51.030;4.696;2024-03-02T14:26:54;13.12;101.19
16505;HTU21D;8365;51.030;4.696;2024-03-02T14:29:24;13.20;102.38
16505;HTU21D;8365;51.030;4.696;2024-03-02T14:31:55;13.05;101.38
16505;HTU21D;8365;51.030;4.696;2024-03-02T14:34:25;13.05;103.09
16505;HTU21D;8365;51.030;4.696;2024-03-02T14:36:56;13.06;102.38
16505;HTU21D;8365;51.030;4.696;2024-03-02T14:39:27;13.27;103.73
16505;HTU21D;8365;51.030;4.696;2024-03-02T14:41:57;13.15;102.31
16505;HTU21D;8365;51.030;4.696;2024-03-02T14:44:28;13.11;103.66
16505;HTU21D;8365;51.030;4.696;2024-03-02T14:46:58;12.97;105.34
16505;HTU21D;8365;51.030;4.696;2024-03-02T14:49:29;12.94;103.95
16505;HTU21D;8365;51.030;4.696;2024-03-02T14:52:04;13.14;105.76
16505;HTU21D;8365;51.030;4.696;2024-03-02T14:54:34;13.15;105.59
16505;HTU21D;8365;51.030;4.696;2024-03-02T14:57:05;13.21;104.08
16505;HTU21D;8365;51.030;4.696;2024-03-02T14:59:36;13.17;103.61
16505;HTU21D;8365;51.030;4.696;2024-03-02T15:02:08;13.11;103.51
16505;HTU21D;8365;51.030;4.696;2024-03-02T15:04:38;13.23;103.68
16505;HTU21D;8365;51.030;4.696;2024-03-02T15:07:11;13.32;105.06
16505;HTU21D;8365;51.030;4.696;2024-03-02T15:09:42;13.19;103.64
16505;HTU21D;8365;51.030;4.696;2024-03-02T15:12:12;13.12;102.10
16505;HTU21D;8365;51.030;4.696;2024-03-02T15:14:44;13.15;102.32
16505;HTU21D;8365;51.030;4.696;2024-03-02T15:17:17;13.20;102.41
16505;HTU21D;8365;51.030;4.696;2024-03-02T15:19:48;13.17;102.96
16505;HTU21D;8365;51.030;4.696;2024-03-02T15:22:19;13.15;102.89
16505;HTU21D;8365;51.030;4.696;2024-03-02T15:24:49;13.19;103.90
16505;HTU21D;8365;51.030;4.696;2024-03-02T15:27:23;13.16;103.24
16505;HTU21D;8365;51.030;4.696;2024-03-02T15:29:55;13.20;104.21
16505;HTU21D;8365;51.030;4.696;2024-03-02T15:32:27;13.22;103.07
16505;HTU21D;8365;51.030;4.696;2024-03-02T15:35:00;13.18;103.14
16505;HTU21D;8365;51.030;4.696;2024-03-02T15:37:30;13.12;103.74
16505;HTU21D;8365;51.030;4.696;2024-03-02T15:40:01;13.26;104.42
16505;HTU21D;8365;51.030;4.696;2024-03-02T15:42:36;13.21;105.34
16505;HTU21D;8365;51.030;4.696;2024-03-02T15:45:06;13.21;104.15
16505;HTU21D;8365;51.030;4.696;2024-03-02T15:47:37;13.14;104.27
16505;HTU21D;8365;51.030;4.696;2024-03-02T15:50:08;13.20;104.30
16505;HTU21D;8365;51.030;4.696;2024-03-02T15:52:42;13.12;103.64
16505;HTU21D;8365;51.030;4.696;2024-03-02T15:55:13;13.05;102.96
16505;HTU21D;8365;51.030;4.696;2024-03-02T15:57:43;13.11;103.48
16505;HTU21D;8365;51.030;4.696;2024-03-02T16:00:14;13.09;103.55